Главная страница
METAR-TAF:

METAR-TAF

Аэропорты :

Orange County Airport

Монтгомери, Нью-Йорк, США

широта: 41-30-33N, долгота: 074-15-54W, высота над уровнем моря: 111 м

Текущие метеонаблюдения

Эта сводка был подготовлена 1 час и 4 минут назад, в 01:54 UTC
Ветер 11 Узел от северо-западный с порывами до 17 Узел
Температура -6°C
Влажность 45%
Давление 1020 hPa
Видимость: 16.1 км
ясное небо

METAR: KMGJ 130154Z AUTO 31011G17KT 10SM CLR M06/M16 A3011 RMK AO2 SLP202 T10561156

Время: 21:58 (02:58 UTC)


TAF: отсутствует

Метеонаблюдения и прогнозы для более 4000 аэропортов (сводки METAR и TAF).

Имеющиеся станции представлены на карте желтыми и красными точками.

Чтобы увидеть название станции, наведите на нее мышь.

Затем щелкните, чтобы увидеть метеонаблюдения и метеопрогнозы.

Управление картой: чтобы увеличить масштаб, щелкните зеленые кнопки с черным крестиком; чтобы уменьшить масштаб, щелкните зеленую кнопку с тире; для просмотра соседних карт щелкайте зеленые стрелки.


METAR-TAF: